Eversley, United Kingdom
Current Conditions -  °F | °C
As of 2:20 PM on Monday 20 Oct 2014 (Local Time) from EGLF Reporting Station
Rain Showers Rain Showers  
Wind Chill: 59°   Ceiling: Unl
Heat Index: 59°   Visibility: 6mi
Dew Point: 48°   Wind: 15mph
Humidity: 67%   Direction: 250°WSW
Pressure: 30"   Gusts: NA
Location:  51.35°N, 0.89°W
Report Text: EGLF 201320Z 25013KT 9999 VCSH SCT028 15/09 Q1016
Loading
Personal Weather Stations






























Interactive Weather Map New forecast layout! Learn more

10-Day Weather Forecast

Advertisements
Track Severe Weather on mobile